createdAt,value
2022-10-22T00:00:55.165Z,88.77
2022-10-22T00:03:22.132Z,86.99
2022-10-22T00:05:48.802Z,86.19
2022-10-22T00:08:15.286Z,85.34
2022-10-22T00:10:42.128Z,85.05
2022-10-22T00:13:08.822Z,86.12
2022-10-22T00:15:35.276Z,87.29
2022-10-22T00:18:01.743Z,87.87
2022-10-22T00:20:28.234Z,87.26
2022-10-22T00:22:54.781Z,86.63
2022-10-22T00:25:21.337Z,86.67
2022-10-22T00:27:47.809Z,86.17
2022-10-22T00:30:14.298Z,86.17
2022-10-22T00:32:41.047Z,85.32
2022-10-22T00:35:08.081Z,85.50
2022-10-22T00:37:35.173Z,85.66
2022-10-22T00:40:01.631Z,84.75
2022-10-22T00:42:28.679Z,84.92
2022-10-22T00:45:15.429Z,85.17
2022-10-22T00:48:13.310Z,84.71
2022-10-22T00:50:55.126Z,85.05
2022-10-22T00:53:29.757Z,84.87
2022-10-22T00:55:56.535Z,86.17
2022-10-22T00:58:27.877Z,85.58
2022-10-22T01:00:56.190Z,84.94
2022-10-22T01:03:22.670Z,87.33
2022-10-22T01:05:58.381Z,94.13
2022-10-22T01:09:08.658Z,93.42
2022-10-22T01:11:40.881Z,92.95
2022-10-22T01:14:10.122Z,92.79
2022-10-22T01:17:01.216Z,92.43
2022-10-22T01:19:36.480Z,91.24
2022-10-22T01:22:38.865Z,90.90
2022-10-22T01:25:35.352Z,90.37
2022-10-22T01:28:25.163Z,89.45
2022-10-22T01:30:56.277Z,88.05
2022-10-22T01:33:26.255Z,88.59
2022-10-22T01:35:54.095Z,88.12
2022-10-22T01:38:24.567Z,86.05
2022-10-22T01:40:52.168Z,87.07
2022-10-22T01:43:19.047Z,85.55
2022-10-22T01:45:54.007Z,86.33
2022-10-22T01:48:45.053Z,85.91
2022-10-22T01:51:47.028Z,85.15
2022-10-22T01:54:47.104Z,85.74
2022-10-22T01:57:19.966Z,84.79
2022-10-22T02:00:07.934Z,84.99
2022-10-22T02:03:02.037Z,85.54
2022-10-22T02:05:37.378Z,85.20
2022-10-22T02:08:11.842Z,85.18
2022-10-22T02:10:43.205Z,86.16
2022-10-22T02:13:21.083Z,85.40
2022-10-22T02:15:52.372Z,85.64
2022-10-22T02:18:24.410Z,86.29
2022-10-22T02:20:51.267Z,86.42
2022-10-22T02:23:17.916Z,85.99
2022-10-22T02:25:50.069Z,86.71
2022-10-22T02:28:24.760Z,86.88
2022-10-22T02:30:56.725Z,88.31
2022-10-22T02:33:33.710Z,87.20
2022-10-22T02:36:02.800Z,89.79
2022-10-22T02:38:31.818Z,90.19
2022-10-22T02:41:02.177Z,92.15
2022-10-22T02:43:29.612Z,91.92
2022-10-22T02:45:56.110Z,93.69
2022-10-22T02:48:22.622Z,92.24
2022-10-22T02:50:49.193Z,92.06
2022-10-22T02:53:15.635Z,91.55
2022-10-22T02:55:42.085Z,91.06
2022-10-22T02:58:08.565Z,92.97
2022-10-22T03:00:35.071Z,91.96
2022-10-22T03:03:01.543Z,91.51
2022-10-22T03:05:28.029Z,91.44
2022-10-22T03:07:54.476Z,91.02
2022-10-22T03:10:20.944Z,90.77
2022-10-22T03:12:47.398Z,91.27
2022-10-22T03:15:14.090Z,89.98
2022-10-22T03:17:40.886Z,89.85
2022-10-22T03:20:07.961Z,88.94
2022-10-22T03:22:38.175Z,89.80
2022-10-22T03:25:10.318Z,87.91
2022-10-22T03:27:40.051Z,87.36
2022-10-22T03:30:07.624Z,87.36
2022-10-22T03:32:34.075Z,88.42
2022-10-22T03:37:34.543Z,88.15
2022-10-22T03:40:02.795Z,87.84
2022-10-22T03:42:29.293Z,88.24
2022-10-22T03:44:55.780Z,88.10
2022-10-22T03:47:22.270Z,88.83
2022-10-22T03:49:48.738Z,88.37
2022-10-22T03:52:15.203Z,89.73
2022-10-22T03:54:41.763Z,91.05
2022-10-22T03:57:08.565Z,90.27
2022-10-22T03:59:41.235Z,90.56
2022-10-22T04:02:08.691Z,90.21
2022-10-22T04:04:36.167Z,90.39
2022-10-22T04:07:03.019Z,92.36
2022-10-22T04:09:33.315Z,92.68
2022-10-22T04:12:00.493Z,92.65
2022-10-22T04:14:47.608Z,93.10
2022-10-22T04:17:14.867Z,91.81
2022-10-22T04:19:41.341Z,91.82
2022-10-22T04:22:07.770Z,91.08
2022-10-22T04:24:34.274Z,90.61
2022-10-22T04:27:00.739Z,89.93
2022-10-22T04:29:27.180Z,89.76
2022-10-22T04:31:53.733Z,89.41
2022-10-22T04:34:20.154Z,88.41
2022-10-22T04:36:46.690Z,88.14
2022-10-22T04:39:13.140Z,87.67
2022-10-22T04:41:39.823Z,86.98
2022-10-22T04:44:09.887Z,87.05
2022-10-22T04:46:39.993Z,86.82
2022-10-22T04:49:06.505Z,86.73
2022-10-22T04:51:33.252Z,86.14
2022-10-22T04:53:59.696Z,85.86
2022-10-22T04:56:29.907Z,85.66
2022-10-22T04:59:02.375Z,85.97
2022-10-22T05:01:31.933Z,85.98
2022-10-22T05:04:01.017Z,85.63
2022-10-22T05:06:29.504Z,84.77
2022-10-22T05:08:59.434Z,83.89
2022-10-22T05:11:37.706Z,83.26
2022-10-22T05:14:06.351Z,83.66
2022-10-22T05:16:34.392Z,83.77
2022-10-22T05:19:03.263Z,82.04
2022-10-22T05:21:29.755Z,82.35
2022-10-22T05:23:57.348Z,81.46
2022-10-22T05:26:23.819Z,81.50
2022-10-22T05:28:50.816Z,79.69
2022-10-22T05:31:18.904Z,80.98
2022-10-22T05:33:46.191Z,81.72
2022-10-22T05:36:15.990Z,80.54
2022-10-22T05:38:42.434Z,81.04
2022-10-22T05:41:17.605Z,82.91
2022-10-22T05:43:44.810Z,81.38
2022-10-22T05:46:22.866Z,81.27
2022-10-22T05:48:55.847Z,81.59
2022-10-22T05:51:23.943Z,81.74
2022-10-22T05:53:58.823Z,81.40
2022-10-22T05:56:26.761Z,81.83
2022-10-22T05:58:53.628Z,81.74
2022-10-22T06:01:21.538Z,80.72
2022-10-22T06:03:48.983Z,80.79
2022-10-22T06:06:31.743Z,81.36
2022-10-22T06:09:12.473Z,82.85
2022-10-22T06:11:39.286Z,82.75
2022-10-22T06:14:05.747Z,83.34
2022-10-22T06:16:32.305Z,83.47
2022-10-22T06:19:00.520Z,83.71
2022-10-22T06:21:27.015Z,84.15
2022-10-22T06:23:56.288Z,83.71
2022-10-22T06:26:22.716Z,83.65
2022-10-22T06:28:49.175Z,83.68
2022-10-22T06:31:15.664Z,83.71
2022-10-22T06:33:42.088Z,83.26
2022-10-22T06:36:14.143Z,83.34
2022-10-22T06:38:41.288Z,84.38
2022-10-22T06:41:13.668Z,84.41
2022-10-22T06:43:41.612Z,83.51
2022-10-22T06:46:09.631Z,83.39
2022-10-22T06:48:37.275Z,83.16
2022-10-22T06:51:05.238Z,82.89
2022-10-22T06:53:32.122Z,82.67
2022-10-22T06:55:58.651Z,82.95
2022-10-22T06:58:25.123Z,82.47
2022-10-22T07:01:02.934Z,82.40
2022-10-22T07:03:29.852Z,82.32
2022-10-22T07:06:02.636Z,82.50
2022-10-22T07:08:29.450Z,83.76
2022-10-22T07:10:56.931Z,84.84
2022-10-22T07:13:26.444Z,84.04
2022-10-22T07:15:54.731Z,82.58
2022-10-22T07:18:22.029Z,82.95
2022-10-22T07:20:49.365Z,81.70
2022-10-22T07:23:16.636Z,81.94
2022-10-22T07:25:43.567Z,81.20
2022-10-22T07:28:11.151Z,81.85
2022-10-22T07:30:39.437Z,80.63
2022-10-22T07:33:06.917Z,78.99
2022-10-22T07:35:33.456Z,78.63
2022-10-22T07:38:00.557Z,79.47
2022-10-22T07:40:27.019Z,79.77
2022-10-22T07:42:53.462Z,79.06
2022-10-22T07:45:19.909Z,79.25
2022-10-22T07:47:47.972Z,79.67
2022-10-22T07:50:15.485Z,78.53
2022-10-22T07:52:42.370Z,78.41
2022-10-22T07:55:09.355Z,77.62
2022-10-22T07:57:35.988Z,76.93
2022-10-22T08:00:06.311Z,76.38
2022-10-22T08:02:33.159Z,76.72
2022-10-22T08:04:59.745Z,75.56
2022-10-22T08:09:57.599Z,74.86
2022-10-22T08:12:24.080Z,74.66
2022-10-22T08:14:50.571Z,75.53
2022-10-22T08:17:17.071Z,76.60
2022-10-22T08:19:43.617Z,77.12
2022-10-22T08:22:10.059Z,76.56
2022-10-22T08:24:36.505Z,75.43
2022-10-22T08:27:03.083Z,73.42
2022-10-22T08:29:29.537Z,73.93
2022-10-22T08:31:56.037Z,74.14
2022-10-22T08:34:22.500Z,73.98
2022-10-22T08:36:48.945Z,73.39
2022-10-22T08:39:15.425Z,72.54
2022-10-22T08:42:02.069Z,73.16
2022-10-22T08:44:47.317Z,72.09
2022-10-22T08:47:41.155Z,70.75
2022-10-22T08:50:15.711Z,70.48
2022-10-22T08:52:49.492Z,70.59
2022-10-22T08:55:17.203Z,69.58
2022-10-22T08:57:48.782Z,69.53
2022-10-22T09:00:27.673Z,69.55
2022-10-22T09:03:02.383Z,68.48
2022-10-22T09:06:02.178Z,67.06
2022-10-22T09:08:28.620Z,67.55
2022-10-22T09:11:35.662Z,66.44
2022-10-22T09:14:04.599Z,66.72
2022-10-22T09:16:42.824Z,66.07
2022-10-22T09:19:36.367Z,65.07
2022-10-22T09:25:18.472Z,65.53
2022-10-22T09:27:45.229Z,66.12
2022-10-22T09:30:19.045Z,67.33
2022-10-22T09:32:45.955Z,66.02
2022-10-22T09:35:14.288Z,66.32
2022-10-22T09:37:50.695Z,66.13
2022-10-22T09:40:18.083Z,63.29
2022-10-22T09:42:46.744Z,64.08
2022-10-22T09:45:20.353Z,66.14
2022-10-22T09:48:01.401Z,63.47
2022-10-22T09:50:41.012Z,61.73
2022-10-22T09:53:31.685Z,62.95
2022-10-22T09:56:01.183Z,62.51
2022-10-22T09:58:28.188Z,62.76
2022-10-22T10:00:58.983Z,62.57
2022-10-22T10:03:32.067Z,62.05
2022-10-22T10:06:04.746Z,63.25
2022-10-22T10:08:33.508Z,63.71
2022-10-22T10:11:10.209Z,63.99
2022-10-22T10:13:52.221Z,64.58
2022-10-22T10:16:36.860Z,63.25
2022-10-22T10:19:29.389Z,62.56
2022-10-22T10:22:26.125Z,61.99
2022-10-22T10:25:23.926Z,62.59
2022-10-22T10:28:09.029Z,63.49
2022-10-22T10:30:48.876Z,63.75
2022-10-22T10:33:21.957Z,65.02
2022-10-22T10:36:02.846Z,63.08
2022-10-22T10:38:42.280Z,61.73
2022-10-22T10:41:32.777Z,62.18
2022-10-22T10:44:26.558Z,62.11
2022-10-22T10:47:19.176Z,59.30
2022-10-22T10:49:46.263Z,61.94
2022-10-22T10:52:30.640Z,62.44
2022-10-22T10:55:19.546Z,62.67
2022-10-22T10:58:21.187Z,63.18
2022-10-22T11:01:02.699Z,60.79
2022-10-22T11:03:29.102Z,61.00
2022-10-22T11:06:00.011Z,60.77
2022-10-22T11:09:14.368Z,57.47
2022-10-22T11:11:49.951Z,59.22
2022-10-22T11:14:42.449Z,60.11
2022-10-22T11:17:16.500Z,61.12
2022-10-22T11:20:04.299Z,62.99
2022-10-22T11:23:18.201Z,62.36
2022-10-22T11:25:48.951Z,61.63
2022-10-22T11:28:32.175Z,60.71
2022-10-22T11:31:08.250Z,60.42
2022-10-22T11:34:32.664Z,59.58
2022-10-22T11:36:59.935Z,59.98
2022-10-22T11:39:42.771Z,57.87
2022-10-22T11:42:18.005Z,57.29
2022-10-22T11:44:58.243Z,56.43
2022-10-22T11:47:27.657Z,56.21
2022-10-22T11:50:02.354Z,58.35
2022-10-22T11:52:31.720Z,58.31
2022-10-22T11:55:02.563Z,57.43
2022-10-22T11:57:39.398Z,55.54
2022-10-22T12:00:31.007Z,54.83
2022-10-22T12:03:18.053Z,53.14
2022-10-22T12:05:45.553Z,53.08
2022-10-22T12:08:20.500Z,50.82
2022-10-22T12:11:14.328Z,52.01
2022-10-22T12:14:13.344Z,51.23
2022-10-22T12:16:55.778Z,49.35
2022-10-22T12:19:22.870Z,50.11
2022-10-22T12:22:12.989Z,49.78
2022-10-22T12:24:43.839Z,51.29
2022-10-22T12:27:55.940Z,49.66
2022-10-22T12:30:23.802Z,49.56
2022-10-22T12:32:55.740Z,48.86
2022-10-22T12:35:27.030Z,48.79
2022-10-22T12:38:21.654Z,48.18
2022-10-22T12:40:50.613Z,48.03
2022-10-22T12:43:19.958Z,49.96
2022-10-22T12:45:49.774Z,49.42
2022-10-22T12:48:23.770Z,48.71
2022-10-22T12:50:56.304Z,49.81
2022-10-22T12:53:29.160Z,50.02
2022-10-22T12:56:01.117Z,49.68
2022-10-22T12:58:32.955Z,48.71
2022-10-22T13:01:00.311Z,47.94
2022-10-22T13:03:30.912Z,47.74
2022-10-22T13:05:57.463Z,48.37
2022-10-22T13:08:27.653Z,45.38
2022-10-22T13:10:54.874Z,44.75
2022-10-22T13:13:31.583Z,43.75
2022-10-22T13:16:13.588Z,43.91
2022-10-22T13:18:40.602Z,42.41
2022-10-22T13:21:23.366Z,42.12
2022-10-22T13:24:18.744Z,42.13
2022-10-22T13:26:50.312Z,41.61
2022-10-22T13:29:20.166Z,40.71
2022-10-22T13:31:50.406Z,40.88
2022-10-22T13:34:21.178Z,40.72
2022-10-22T13:36:48.646Z,40.14
2022-10-22T13:39:23.634Z,40.43
2022-10-22T13:41:51.371Z,40.45
2022-10-22T13:44:19.075Z,38.88
2022-10-22T13:46:47.433Z,38.44
2022-10-22T13:49:20.297Z,38.07
2022-10-22T13:51:47.449Z,37.41
2022-10-22T13:54:17.637Z,37.57
2022-10-22T13:56:44.144Z,37.85
2022-10-22T13:59:10.820Z,36.69
2022-10-22T14:01:38.788Z,34.85
2022-10-22T14:04:10.274Z,34.91
2022-10-22T14:09:14.597Z,33.85
2022-10-22T14:11:41.154Z,32.99
2022-10-22T14:14:07.645Z,32.32
2022-10-22T14:16:35.083Z,31.99
2022-10-22T14:19:04.190Z,32.92
2022-10-22T14:21:36.593Z,31.99
2022-10-22T14:24:05.990Z,33.44
2022-10-22T14:26:34.926Z,33.75
2022-10-22T14:29:10.656Z,31.70
2022-10-22T14:34:13.486Z,31.69
2022-10-22T14:36:40.023Z,31.04
2022-10-22T14:39:06.454Z,31.04
2022-10-22T14:41:32.951Z,30.10
2022-10-22T14:43:59.403Z,29.89
2022-10-22T14:46:25.917Z,29.75
2022-10-22T14:48:52.353Z,28.95
2022-10-22T14:51:21.194Z,29.03
2022-10-22T14:53:47.926Z,29.25
2022-10-22T14:56:18.007Z,29.25
2022-10-22T14:58:44.523Z,29.12
2022-10-22T15:01:11.056Z,29.97
2022-10-22T15:03:37.635Z,32.36
2022-10-22T15:06:04.364Z,32.35
2022-10-22T15:08:31.051Z,32.74
2022-10-22T15:11:09.808Z,33.47
2022-10-22T15:13:36.271Z,33.59
2022-10-22T15:16:06.276Z,33.67
2022-10-22T15:18:32.744Z,33.36
2022-10-22T15:21:03.453Z,33.85
2022-10-22T15:23:30.479Z,33.39
2022-10-22T15:25:56.979Z,32.75
2022-10-22T15:28:24.691Z,32.18
2022-10-22T15:30:56.082Z,33.00
2022-10-22T15:33:22.893Z,33.41
2022-10-22T15:35:49.474Z,33.72
2022-10-22T15:38:16.843Z,34.22
2022-10-22T15:40:43.396Z,34.13
2022-10-22T15:43:10.717Z,35.33
2022-10-22T15:45:37.160Z,35.64
2022-10-22T15:48:04.103Z,35.64
2022-10-22T15:50:30.719Z,36.81
2022-10-22T15:52:57.267Z,36.89
2022-10-22T15:55:23.742Z,37.73
2022-10-22T15:57:53.925Z,38.99
2022-10-22T16:00:21.621Z,39.88
2022-10-22T16:02:48.182Z,42.03
2022-10-22T16:05:14.669Z,44.42
2022-10-22T16:07:41.527Z,44.55
2022-10-22T16:10:08.621Z,46.30
2022-10-22T16:12:35.068Z,47.55
2022-10-22T16:15:01.571Z,48.48
2022-10-22T16:17:28.039Z,49.66
2022-10-22T16:19:54.504Z,49.80
2022-10-22T16:22:20.947Z,49.94
2022-10-22T16:24:47.379Z,50.88
2022-10-22T16:27:13.823Z,52.88
2022-10-22T16:29:40.288Z,53.22
2022-10-22T16:32:07.171Z,53.35
2022-10-22T16:34:33.613Z,53.71
2022-10-22T16:37:00.103Z,54.28
2022-10-22T16:39:26.574Z,55.08
2022-10-22T16:41:53.048Z,55.18
2022-10-22T16:44:19.508Z,56.26
2022-10-22T16:46:45.955Z,56.89
2022-10-22T16:49:12.397Z,57.37
2022-10-22T16:51:39.126Z,57.58
2022-10-22T16:54:08.335Z,58.15
2022-10-22T16:56:37.882Z,58.45
2022-10-22T16:59:04.316Z,58.93
2022-10-22T17:01:30.862Z,58.82
2022-10-22T17:04:00.770Z,59.33
2022-10-22T17:06:28.077Z,59.36
2022-10-22T17:08:54.610Z,60.36
2022-10-22T17:11:23.783Z,60.05
2022-10-22T17:13:53.396Z,61.02
2022-10-22T17:16:22.837Z,61.48
2022-10-22T17:18:49.316Z,61.36
2022-10-22T17:21:16.955Z,62.00
2022-10-22T17:23:43.702Z,61.62
2022-10-22T17:26:16.352Z,62.59
2022-10-22T17:28:42.863Z,62.57
2022-10-22T17:31:17.059Z,62.78
2022-10-22T17:33:43.841Z,63.30
2022-10-22T17:36:11.138Z,63.35
2022-10-22T17:38:37.779Z,62.85
2022-10-22T17:41:07.006Z,63.17
2022-10-22T17:43:37.555Z,63.06
2022-10-22T17:46:06.747Z,62.92
2022-10-22T17:48:34.140Z,63.09
2022-10-22T17:51:00.905Z,63.25
2022-10-22T17:53:27.413Z,63.05
2022-10-22T17:56:02.493Z,63.69
2022-10-22T17:58:30.238Z,64.26
2022-10-22T18:00:57.573Z,64.06
2022-10-22T18:03:24.416Z,64.52
2022-10-22T18:05:51.024Z,65.16
2022-10-22T18:08:17.588Z,64.96
2022-10-22T18:10:44.082Z,65.13
2022-10-22T18:13:10.656Z,65.55
2022-10-22T18:15:37.158Z,65.29
2022-10-22T18:18:03.857Z,65.47
2022-10-22T18:20:30.896Z,65.36
2022-10-22T18:22:57.534Z,65.58
2022-10-22T18:25:24.067Z,65.88
2022-10-22T18:27:50.588Z,66.03
2022-10-22T18:30:17.119Z,65.65
2022-10-22T18:32:43.612Z,65.83
2022-10-22T18:35:11.880Z,65.83
2022-10-22T18:37:38.412Z,65.84
2022-10-22T18:40:05.689Z,65.91
2022-10-22T18:42:37.754Z,65.72
2022-10-22T18:45:08.837Z,65.98
2022-10-22T18:47:40.206Z,65.51
2022-10-22T18:50:07.418Z,65.40
2022-10-22T18:52:34.189Z,65.99
2022-10-22T18:55:00.743Z,65.47
2022-10-22T18:57:27.220Z,65.94
2022-10-22T18:59:55.937Z,65.77
2022-10-22T19:02:25.705Z,65.58
2022-10-22T19:04:52.267Z,65.61
2022-10-22T19:07:18.733Z,65.19
2022-10-22T19:09:45.402Z,65.93
2022-10-22T19:12:12.002Z,64.98
2022-10-22T19:14:38.565Z,65.72
2022-10-22T19:17:05.204Z,65.77
2022-10-22T19:19:31.838Z,65.97
2022-10-22T19:21:58.322Z,66.43
2022-10-22T19:24:25.249Z,67.37
2022-10-22T19:26:52.077Z,68.41
2022-10-22T19:29:20.553Z,68.63
2022-10-22T19:31:48.348Z,70.01
2022-10-22T19:34:15.709Z,72.24
2022-10-22T19:36:42.570Z,73.15
2022-10-22T19:39:09.119Z,72.26
2022-10-22T19:41:36.405Z,71.87
2022-10-22T19:44:03.039Z,71.05
2022-10-22T19:46:30.643Z,71.33
2022-10-22T19:48:57.292Z,70.23
2022-10-22T19:51:28.293Z,70.01
2022-10-22T19:54:00.441Z,69.13
2022-10-22T19:56:28.222Z,69.02
2022-10-22T19:58:55.606Z,68.41
2022-10-22T20:01:22.768Z,68.27
2022-10-22T20:03:49.350Z,68.18
2022-10-22T20:06:17.409Z,68.23
2022-10-22T20:08:45.577Z,67.91
2022-10-22T20:11:18.767Z,68.77
2022-10-22T20:13:48.154Z,68.34
2022-10-22T20:16:20.806Z,68.56
2022-10-22T20:18:47.373Z,68.18
2022-10-22T20:21:16.568Z,68.59
2022-10-22T20:23:43.148Z,68.98
2022-10-22T20:26:09.847Z,69.32
2022-10-22T20:28:38.053Z,69.64
2022-10-22T20:31:24.600Z,70.23
2022-10-22T20:33:51.126Z,70.28
2022-10-22T20:36:22.655Z,69.71
2022-10-22T20:38:50.189Z,69.47
2022-10-22T20:41:20.962Z,69.61
2022-10-22T20:43:49.535Z,69.77
2022-10-22T20:46:19.420Z,69.87
2022-10-22T20:48:46.302Z,69.38
2022-10-22T20:51:13.515Z,70.03
2022-10-22T20:53:40.059Z,69.42
2022-10-22T20:56:06.806Z,69.94
2022-10-22T20:58:33.579Z,70.19
2022-10-22T21:01:00.513Z,69.67
2022-10-22T21:03:27.155Z,69.91
2022-10-22T21:05:53.686Z,69.54
2022-10-22T21:08:20.239Z,69.63
2022-10-22T21:10:47.207Z,70.29
2022-10-22T21:13:14.634Z,69.83
2022-10-22T21:15:41.269Z,69.77
2022-10-22T21:18:08.622Z,69.44
2022-10-22T21:20:35.366Z,69.56
2022-10-22T21:23:01.906Z,69.93
2022-10-22T21:25:28.530Z,69.67
2022-10-22T21:27:55.050Z,69.72
2022-10-22T21:30:21.518Z,70.01
2022-10-22T21:32:48.001Z,70.03
2022-10-22T21:35:14.527Z,69.97
2022-10-22T21:37:41.345Z,70.50
2022-10-22T21:40:08.553Z,70.43
2022-10-22T21:42:35.314Z,70.99
2022-10-22T21:45:02.025Z,72.60
2022-10-22T21:47:28.638Z,74.02
2022-10-22T21:49:55.136Z,74.33
2022-10-22T21:52:21.842Z,73.36
2022-10-22T21:54:48.598Z,71.76
2022-10-22T21:57:15.177Z,71.88
2022-10-22T21:59:41.786Z,70.39
2022-10-22T22:02:08.460Z,70.19
2022-10-22T22:04:35.244Z,69.88
2022-10-22T22:07:01.824Z,68.60
2022-10-22T22:09:28.414Z,68.04
2022-10-22T22:11:55.506Z,67.92
2022-10-22T22:14:23.262Z,67.71
2022-10-22T22:16:50.260Z,67.81
2022-10-22T22:19:19.505Z,67.50
2022-10-22T22:21:46.514Z,67.09
2022-10-22T22:24:14.385Z,67.50
2022-10-22T22:26:45.444Z,67.20
2022-10-22T22:29:12.226Z,66.73
2022-10-22T22:31:39.146Z,67.78
2022-10-22T22:34:15.599Z,67.65
2022-10-22T22:36:47.288Z,67.52
2022-10-22T22:39:19.173Z,68.42
2022-10-22T22:41:47.358Z,68.58
2022-10-22T22:44:15.469Z,68.51
2022-10-22T22:46:43.771Z,68.72
2022-10-22T22:49:13.092Z,68.15
2022-10-22T22:51:40.059Z,68.29
2022-10-22T22:54:07.184Z,68.35
2022-10-22T22:56:34.200Z,68.11
2022-10-22T22:59:01.524Z,67.78
2022-10-22T23:01:34.799Z,68.18
2022-10-22T23:04:09.294Z,68.04
2022-10-22T23:06:37.266Z,67.89
2022-10-22T23:09:06.155Z,68.47
2022-10-22T23:11:33.905Z,68.37
2022-10-22T23:14:02.408Z,68.15
2022-10-22T23:16:32.516Z,68.57
2022-10-22T23:19:01.857Z,68.41
2022-10-22T23:21:31.440Z,69.13
2022-10-22T23:24:00.924Z,68.32
2022-10-22T23:26:33.852Z,68.85
2022-10-22T23:29:10.103Z,69.15
2022-10-22T23:31:37.531Z,69.10
2022-10-22T23:34:06.947Z,69.27
2022-10-22T23:36:35.709Z,69.91
2022-10-22T23:39:11.764Z,69.60
2022-10-22T23:41:38.763Z,69.82
2022-10-22T23:44:06.703Z,68.86
2022-10-22T23:46:33.214Z,69.75
2022-10-22T23:49:00.835Z,69.33
2022-10-22T23:51:28.040Z,69.59
2022-10-22T23:54:00.759Z,69.80
2022-10-22T23:56:29.308Z,69.87
2022-10-22T23:58:56.653Z,70.35
